Time;durP1;ratioP1;P1;durP2;ratioP2;P2;SDS_P1;SDS_P2;PMS_P1;PMS_P2;Temp;Humidity;BMP_temperature;BMP_pressure;BME280_temperature;BME280_humidity;BME280_pressure;Samples;Min_cycle;Max_cycle;Signal;HPM_P1;HPM_P2
2021/12/19 07:02:25;;;;;;;46.80;21.52;;;4.80;99.90;;;;;;5023955;23;20047;-85
2021/12/19 07:04:53;;;;;;;44.97;20.75;;;4.80;99.90;;;;;;4952503;28;20054;-84
2021/12/19 07:07:21;;;;;;;44.60;21.05;;;4.70;99.90;;;;;;4954266;28;20523;-85
2021/12/19 07:09:48;;;;;;;46.45;22.60;;;4.70;99.90;;;;;;4963504;28;20277;-84
2021/12/19 07:12:17;;;;;;;52.75;23.05;;;4.70;99.90;;;;;;4953239;28;20114;-84
2021/12/19 07:14:44;;;;;;;43.58;21.77;;;4.70;99.90;;;;;;4954143;28;20047;-85
2021/12/19 07:17:11;;;;;;;47.60;22.35;;;4.70;99.90;;;;;;4953499;28;20106;-85
2021/12/19 07:19:38;;;;;;;49.45;21.23;;;4.70;99.90;;;;;;4954730;28;20043;-85
2021/12/19 07:22:05;;;;;;;44.25;21.60;;;4.70;99.90;;;;;;4956564;28;20189;-85
2021/12/19 07:24:32;;;;;;;47.55;21.42;;;4.70;99.90;;;;;;4951557;28;20067;-84
2021/12/19 07:26:59;;;;;;;52.58;22.98;;;4.60;99.90;;;;;;4952963;28;20470;-85
2021/12/19 07:29:26;;;;;;;48.33;22.10;;;4.60;99.90;;;;;;4934181;28;20115;-86
2021/12/19 07:31:53;;;;;;;53.00;22.80;;;4.60;99.90;;;;;;4947768;28;20515;-84
2021/12/19 07:34:28;;;;;;;48.47;22.02;;;4.60;99.90;;;;;;4945369;28;20091;-86
2021/12/19 07:36:55;;;;;;;53.75;22.80;;;4.60;99.90;;;;;;4947531;28;20568;-85
2021/12/19 07:39:38;;;;;;;53.55;22.67;;;4.60;99.90;;;;;;4951015;28;20110;-85
2021/12/19 07:42:10;;;;;;;52.45;22.77;;;4.60;99.90;;;;;;4933630;28;20048;-85
2021/12/19 07:44:38;;;;;;;50.40;22.65;;;4.60;99.90;;;;;;4934295;29;20051;-84
2021/12/19 07:47:07;;;;;;;53.65;24.33;;;4.50;99.90;;;;;;4952760;28;20063;-85
2021/12/19 07:49:35;;;;;;;54.05;23.23;;;4.50;99.90;;;;;;4953258;28;20069;-86
2021/12/19 07:52:03;;;;;;;55.83;24.65;;;4.60;99.90;;;;;;4944032;28;20106;-85
2021/12/19 07:54:30;;;;;;;58.83;24.90;;;4.60;99.90;;;;;;4936222;29;20103;-84
2021/12/19 07:56:57;;;;;;;54.00;22.95;;;4.60;99.90;;;;;;4953415;28;20110;-84
2021/12/19 07:59:24;;;;;;;55.20;23.00;;;4.60;99.90;;;;;;4949819;28;20055;-85
2021/12/19 08:01:51;;;;;;;55.00;23.67;;;4.60;99.90;;;;;;4947707;28;20059;-84
2021/12/19 08:04:25;;;;;;;56.63;23.90;;;4.60;99.90;;;;;;4939395;28;20047;-83
2021/12/19 08:06:54;;;;;;;50.25;22.70;;;4.60;99.90;;;;;;4953869;28;20587;-83
2021/12/19 08:09:36;;;;;;;52.03;22.90;;;4.60;99.90;;;;;;4947053;28;20051;-84
2021/12/19 08:12:07;;;;;;;55.15;23.98;;;4.60;99.90;;;;;;4949299;28;20063;-83
2021/12/19 08:14:34;;;;;;;54.58;24.65;;;4.60;99.90;;;;;;4946318;28;20051;-84
2021/12/19 08:17:01;;;;;;;62.42;24.88;;;4.60;99.90;;;;;;4948792;28;20078;-84
2021/12/19 08:19:29;;;;;;;59.72;24.75;;;4.60;99.90;;;;;;4948382;28;20053;-84
2021/12/19 08:21:56;;;;;;;59.65;24.65;;;4.60;99.90;;;;;;4948277;28;20058;-83
2021/12/19 08:24:23;;;;;;;52.00;25.10;;;4.60;99.90;;;;;;4945558;28;20055;-84
2021/12/19 08:26:50;;;;;;;56.42;23.63;;;4.60;99.90;;;;;;4948093;28;20051;-84
2021/12/19 08:29:17;;;;;;;55.60;23.73;;;4.70;99.90;;;;;;4945542;28;20059;-84
2021/12/19 08:31:44;;;;;;;56.35;23.45;;;4.70;99.90;;;;;;4946808;28;20051;-83
2021/12/19 08:34:16;;;;;;;61.65;24.63;;;4.70;99.90;;;;;;4942731;28;20590;-84
2021/12/19 08:36:43;;;;;;;60.72;23.85;;;4.70;99.90;;;;;;4948070;28;20422;-84
2021/12/19 08:39:11;;;;;;;59.08;24.35;;;4.70;99.90;;;;;;4946096;28;20071;-84
2021/12/19 08:41:39;;;;;;;58.88;25.00;;;4.80;99.90;;;;;;4946705;28;20142;-83
2021/12/19 08:44:07;;;;;;;54.30;23.35;;;4.80;99.90;;;;;;4940605;28;20047;-82
2021/12/19 08:46:35;;;;;;;56.05;23.23;;;4.80;99.90;;;;;;4942475;28;20051;-82
2021/12/19 08:49:04;;;;;;;57.40;23.35;;;4.90;99.90;;;;;;4940870;28;20048;-82
2021/12/19 08:51:34;;;;;;;54.97;23.70;;;4.90;99.90;;;;;;4948188;28;20050;-83
2021/12/19 08:54:01;;;;;;;57.70;25.02;;;4.90;99.90;;;;;;4947087;28;20061;-82
2021/12/19 08:56:29;;;;;;;58.78;23.70;;;5.00;99.90;;;;;;4947872;28;20057;-83
2021/12/19 08:59:06;;;;;;;58.95;22.83;;;5.00;99.90;;;;;;4937059;28;20055;-93
2021/12/19 09:02:01;;;;;;;58.75;24.55;;;5.10;99.90;;;;;;4934104;29;20094;-82
2021/12/19 09:04:29;;;;;;;68.38;21.80;;;5.20;99.90;;;;;;4943677;28;20105;-83
2021/12/19 09:06:56;;;;;;;51.05;22.77;;;5.30;99.90;;;;;;4949935;28;20051;-83
2021/12/19 09:09:24;;;;;;;50.95;21.95;;;5.40;99.90;;;;;;4947770;28;20040;-82
2021/12/19 09:11:52;;;;;;;50.35;22.52;;;5.40;99.90;;;;;;4951340;28;20048;-83
2021/12/19 09:14:19;;;;;;;53.50;23.73;;;5.50;99.90;;;;;;4943078;28;20059;-83
2021/12/19 09:16:46;;;;;;;49.28;23.13;;;5.50;99.90;;;;;;4955244;28;20083;-82
2021/12/19 09:19:14;;;;;;;51.05;22.35;;;5.50;99.90;;;;;;4946745;28;20047;-83
2021/12/19 09:21:41;;;;;;;47.00;21.83;;;5.60;99.90;;;;;;4951594;28;20105;-82
2021/12/19 09:24:08;;;;;;;50.72;21.58;;;5.60;99.90;;;;;;4952961;28;20083;-83
2021/12/19 09:26:36;;;;;;;50.88;21.95;;;5.60;99.90;;;;;;4949044;28;20058;-83
2021/12/19 09:29:04;;;;;;;49.50;23.10;;;5.70;99.90;;;;;;4952127;28;20051;-83
2021/12/19 09:31:31;;;;;;;50.00;22.00;;;5.70;99.90;;;;;;4950615;28;20103;-83
2021/12/19 09:33:58;;;;;;;44.05;22.08;;;5.80;99.90;;;;;;4954689;28;20059;-83
2021/12/19 09:36:25;;;;;;;49.63;22.48;;;5.90;99.90;;;;;;4954285;28;20164;-83
2021/12/19 09:38:53;;;;;;;50.10;21.50;;;5.90;99.90;;;;;;4954870;28;20416;-83
2021/12/19 09:41:32;;;;;;;47.30;21.63;;;6.00;99.90;;;;;;4952249;28;20055;-83
2021/12/19 09:44:04;;;;;;;;;;;6.00;99.90;;;;;;4937519;29;20052;-83
2021/12/19 09:46:36;;;;;;;42.97;21.67;;;6.10;99.90;;;;;;4946911;28;19926;-84
2021/12/19 09:49:06;;;;;;;44.20;20.95;;;6.10;99.90;;;;;;4953434;28;20051;-83
2021/12/19 09:51:33;;;;;;;45.60;20.40;;;6.20;99.90;;;;;;4954460;28;20102;-84
2021/12/19 09:54:00;;;;;;;43.30;20.05;;;6.30;99.90;;;;;;4954172;28;20098;-83
2021/12/19 09:56:28;;;;;;;44.28;20.38;;;6.30;99.90;;;;;;4952000;28;20066;-83
2021/12/19 09:58:55;;;;;;;42.88;19.50;;;6.40;99.90;;;;;;4953380;28;20203;-82
2021/12/19 10:01:22;;;;;;;40.45;19.42;;;6.40;99.90;;;;;;4951555;28;20099;-82
2021/12/19 10:03:49;;;;;;;40.20;19.80;;;6.50;99.90;;;;;;4954632;28;20040;-83
2021/12/19 10:06:22;;;;;;;44.30;20.88;;;6.50;99.90;;;;;;4951207;28;20350;-82
2021/12/19 10:09:06;;;;;;;37.22;19.17;;;6.60;99.90;;;;;;4951114;28;20062;-82
2021/12/19 10:11:54;;;;;;;38.38;18.33;;;6.70;99.90;;;;;;4952514;28;20504;-83
2021/12/19 10:14:26;;;;;;;39.22;19.13;;;6.70;99.90;;;;;;4951020;28;20077;-83
2021/12/19 10:16:54;;;;;;;41.22;20.05;;;6.80;99.90;;;;;;4951168;28;20043;-82
2021/12/19 10:19:21;;;;;;;38.60;19.15;;;6.80;99.90;;;;;;4944996;28;20102;-82
2021/12/19 10:21:48;;;;;;;36.47;18.23;;;6.90;99.90;;;;;;4946954;28;20055;-82
2021/12/19 10:24:35;;;;;;;37.72;18.60;;;7.00;99.90;;;;;;4935504;28;20070;-82
2021/12/19 10:27:03;;;;;;;35.60;18.52;;;7.00;99.90;;;;;;4950129;28;20512;-78
2021/12/19 10:29:46;;;;;;;36.25;18.58;;;7.10;99.90;;;;;;4951069;28;20510;-80
2021/12/19 10:32:13;;;;;;;35.47;18.85;;;7.20;99.90;;;;;;4950161;28;20051;-82
2021/12/19 10:34:40;;;;;;;39.13;18.38;;;7.20;99.90;;;;;;4952133;28;20058;-83
2021/12/19 10:37:34;;;;;;;36.70;17.45;;;7.30;99.90;;;;;;4948463;28;20043;-83
2021/12/19 10:40:03;;;;;;;39.55;17.75;;;7.30;99.90;;;;;;4950766;28;20058;-83
2021/12/19 10:42:34;;;;;;;;;;;7.40;99.90;;;;;;4950053;28;20047;-84
2021/12/19 10:47:47;;;;;;;34.92;17.05;;;7.50;99.90;;;;;;4950151;28;20479;-85
2021/12/19 10:50:14;;;;;;;37.67;17.75;;;7.50;99.90;;;;;;4945770;28;20047;-84
2021/12/19 10:52:41;;;;;;;37.28;16.92;;;7.60;99.90;;;;;;4954147;28;20035;-84
2021/12/19 10:55:12;;;;;;;42.08;18.38;;;7.60;99.90;;;;;;4953248;28;20130;-85
2021/12/19 10:57:42;;;;;;;50.20;17.55;;;7.70;99.90;;;;;;4951301;28;20126;-83
2021/12/19 11:00:21;;;;;;;37.85;15.98;;;7.70;99.90;;;;;;4951915;28;20051;-83
2021/12/19 11:02:49;;;;;;;37.92;16.25;;;7.70;99.90;;;;;;4952817;28;20055;-83
2021/12/19 11:05:42;;;;;;;33.58;16.13;;;7.80;99.90;;;;;;4947901;28;20351;-82
2021/12/19 11:08:10;;;;;;;32.72;15.32;;;7.80;99.90;;;;;;4932062;28;20110;-82
2021/12/19 11:10:48;;;;;;;31.85;15.65;;;7.90;99.90;;;;;;4934034;28;20062;-82
2021/12/19 11:13:24;;;;;;;32.80;15.82;;;7.90;99.90;;;;;;4948630;28;20797;-84
2021/12/19 11:15:51;;;;;;;31.13;13.80;;;7.90;99.90;;;;;;4936948;28;20050;-82
2021/12/19 11:18:18;;;;;;;29.58;14.65;;;8.00;99.90;;;;;;4946936;28;20148;-82
2021/12/19 11:20:47;;;;;;;27.10;14.05;;;8.10;99.90;;;;;;4946679;28;20476;-83
2021/12/19 11:23:15;;;;;;;27.27;13.65;;;8.10;99.90;;;;;;4948005;28;20057;-84
2021/12/19 11:25:43;;;;;;;34.75;16.35;;;8.10;99.90;;;;;;4947183;28;20062;-83
2021/12/19 11:28:14;;;;;;;28.13;15.02;;;8.10;99.90;;;;;;4947351;28;20101;-82
2021/12/19 11:30:41;;;;;;;27.38;14.27;;;8.20;99.90;;;;;;4943315;28;20832;-82
2021/12/19 11:33:43;;;;;;;29.77;14.05;;;8.30;99.90;;;;;;4947922;28;20165;-83
2021/12/19 11:36:11;;;;;;;28.85;14.43;;;8.30;99.90;;;;;;4888077;29;20053;-83
2021/12/19 11:38:39;;;;;;;26.80;13.50;;;8.30;99.90;;;;;;4888534;29;20410;-83
2021/12/19 11:41:08;;;;;;;31.27;13.95;;;8.30;99.90;;;;;;4888983;29;20166;-83
2021/12/19 11:43:37;;;;;;;29.65;12.95;;;8.40;99.90;;;;;;4890035;29;20048;-84
2021/12/19 11:46:14;;;;;;;29.70;13.65;;;8.40;99.90;;;;;;4873517;29;20052;-82
2021/12/19 11:48:41;;;;;;;32.75;13.57;;;8.50;99.90;;;;;;4883319;29;20063;-83
2021/12/19 11:51:20;;;;;;;27.67;13.43;;;8.50;99.90;;;;;;4888805;29;20143;-84
2021/12/19 11:53:47;;;;;;;26.17;13.07;;;8.50;99.90;;;;;;4875220;29;20080;-82
2021/12/19 11:56:16;;;;;;;29.08;13.27;;;8.50;99.90;;;;;;4889629;29;20135;-83
2021/12/19 11:58:49;;;;;;;26.27;13.07;;;8.60;99.90;;;;;;4874019;29;20055;-83
2021/12/19 12:01:19;;;;;;;26.50;13.88;;;8.60;99.90;;;;;;4873481;29;20609;-84
2021/12/19 12:04:02;;;;;;;25.95;13.27;;;8.70;99.90;;;;;;4888225;29;20052;-82
2021/12/19 12:06:41;;;;;;;29.40;13.73;;;8.70;99.90;;;;;;4888458;29;20055;-81
2021/12/19 12:09:15;;;;;;;;;;;8.70;99.90;;;;;;4873506;29;20801;-82
2021/12/19 12:12:04;;;;;;;24.65;13.23;;;8.70;99.90;;;;;;4915434;28;19999;-81
2021/12/19 12:14:35;;;;;;;26.85;12.50;;;8.80;99.90;;;;;;4947893;28;20117;-83
2021/12/19 12:17:12;;;;;;;29.10;12.80;;;8.80;99.90;;;;;;4943807;28;20057;-82
2021/12/19 12:19:49;;;;;;;23.10;12.07;;;8.80;99.90;;;;;;4947042;28;20492;-82
2021/12/19 12:25:30;;;;;;;20.83;11.13;;;8.90;99.90;;;;;;4947932;28;20047;-82
2021/12/19 12:28:04;;;;;;;17.83;10.38;;;9.00;99.90;;;;;;4947474;28;20570;-82
2021/12/19 12:30:40;;;;;;;21.70;11.68;;;9.00;99.90;;;;;;4947137;28;20051;-82
2021/12/19 12:33:10;;;;;;;22.30;11.27;;;9.00;99.90;;;;;;4945525;28;20051;-82
2021/12/19 12:35:39;;;;;;;23.35;11.82;;;9.10;99.90;;;;;;4948120;28;20101;-81
2021/12/19 12:38:08;;;;;;;18.73;10.88;;;9.10;99.90;;;;;;4945512;28;20051;-81
2021/12/19 12:40:50;;;;;;;18.88;11.23;;;9.10;99.90;;;;;;4946578;28;20047;-82
2021/12/19 12:43:30;;;;;;;21.88;11.80;;;9.10;99.90;;;;;;4945497;28;20051;-81
2021/12/19 12:46:14;;;;;;;23.95;11.63;;;9.20;99.90;;;;;;4946903;28;20543;-82
2021/12/19 12:49:03;;;;;;;22.23;11.77;;;9.20;99.90;;;;;;4945000;28;20047;-82
2021/12/19 12:51:43;;;;;;;24.30;12.52;;;9.20;99.90;;;;;;4933950;28;20572;-82
2021/12/19 12:54:11;;;;;;;23.13;12.07;;;9.20;99.90;;;;;;4946610;28;20051;-83
2021/12/19 12:56:46;;;;;;;19.70;11.93;;;9.30;99.90;;;;;;4948156;28;20070;-83
2021/12/19 12:59:16;;;;;;;22.92;11.63;;;9.30;99.90;;;;;;4947418;28;20079;-83
2021/12/19 13:01:47;;;;;;;21.50;11.90;;;9.30;99.90;;;;;;4955510;28;20102;-83
2021/12/19 13:04:18;;;;;;;21.50;12.25;;;9.30;99.90;;;;;;4947064;28;20504;-83
2021/12/19 13:06:50;;;;;;;20.30;11.73;;;9.40;99.90;;;;;;4948818;28;20051;-82
2021/12/19 13:09:19;;;;;;;25.17;12.25;;;9.40;99.90;;;;;;4948578;28;20051;-83
2021/12/19 13:11:50;;;;;;;22.67;11.20;;;9.40;99.90;;;;;;4949142;28;20108;-82
2021/12/19 13:14:18;;;;;;;18.05;10.73;;;9.40;99.90;;;;;;4947156;28;20051;-82
2021/12/19 13:17:01;;;;;;;18.23;11.40;;;9.40;99.90;;;;;;4947012;28;20039;-83
2021/12/19 13:19:39;;;;;;;23.17;11.63;;;9.40;99.90;;;;;;4946678;28;20051;-84
2021/12/19 13:22:09;;;;;;;18.67;10.68;;;9.50;99.90;;;;;;4947320;28;20043;-84
2021/12/19 13:24:41;;;;;;;17.48;10.60;;;9.50;99.90;;;;;;4940786;28;20061;-82
2021/12/19 13:27:22;;;;;;;16.45;9.95;;;9.50;99.90;;;;;;4945247;28;20460;-83
2021/12/19 13:30:02;;;;;;;16.13;9.80;;;9.50;99.90;;;;;;4944044;28;20423;-81
2021/12/19 13:32:30;;;;;;;15.00;9.88;;;9.50;99.90;;;;;;4947687;28;20043;-83
2021/12/19 13:34:59;;;;;;;14.23;8.77;;;9.50;99.90;;;;;;4946939;28;20043;-81
2021/12/19 13:37:26;;;;;;;12.48;8.13;;;9.50;99.90;;;;;;4957409;28;20090;-82
2021/12/19 13:40:02;;;;;;;14.23;8.77;;;9.50;99.90;;;;;;4945488;28;20857;-81
2021/12/19 13:43:02;;;;;;;12.50;8.10;;;9.60;99.90;;;;;;4943048;28;20075;-80
2021/12/19 13:45:37;;;;;;;11.82;6.95;;;9.60;99.90;;;;;;4942601;28;20099;-82
2021/12/19 13:48:24;;;;;;;11.25;7.28;;;9.50;99.90;;;;;;4946815;28;20102;-82
2021/12/19 13:50:54;;;;;;;12.32;7.20;;;9.50;99.90;;;;;;4946686;28;20110;-82
2021/12/19 13:53:21;;;;;;;13.15;7.90;;;9.60;99.90;;;;;;4944787;28;20046;-82
2021/12/19 13:55:57;;;;;;;11.40;6.43;;;9.60;99.90;;;;;;4946406;28;20043;-83
2021/12/19 13:58:47;;;;;;;10.70;6.63;;;9.60;99.90;;;;;;4944442;28;20059;-81
2021/12/19 14:01:20;;;;;;;9.82;5.85;;;9.60;99.90;;;;;;4947768;28;20583;-83
2021/12/19 14:03:57;;;;;;;10.80;5.70;;;9.60;99.90;;;;;;4950001;28;20106;-83
2021/12/19 14:06:37;;;;;;;9.50;5.65;;;9.60;99.90;;;;;;4948350;28;20047;-83
2021/12/19 14:09:18;;;;;;;9.68;5.25;;;9.60;99.90;;;;;;4952411;28;20051;-83
2021/12/19 14:11:55;;;;;;;8.45;5.15;;;9.60;99.90;;;;;;4948844;28;20098;-82
2021/12/19 14:14:29;;;;;;;10.27;5.40;;;9.50;99.90;;;;;;4948301;28;20094;-82
2021/12/19 14:17:10;;;;;;;12.57;5.30;;;9.60;99.90;;;;;;4949432;28;20048;-82
2021/12/19 14:19:40;;;;;;;13.63;5.13;;;9.50;99.90;;;;;;4948727;28;20058;-82
2021/12/19 14:22:07;;;;;;;10.40;5.20;;;9.50;99.90;;;;;;4943439;28;20122;-81
2021/12/19 14:24:45;;;;;;;13.52;5.78;;;9.50;99.90;;;;;;4941905;28;20047;-81
2021/12/19 14:27:40;;;;;;;11.88;7.47;;;9.50;99.90;;;;;;4947203;28;20055;-81
2021/12/19 14:30:14;;;;;;;11.60;6.95;;;9.50;99.90;;;;;;4948938;28;20054;-81
2021/12/19 14:32:56;;;;;;;13.35;7.32;;;9.50;99.90;;;;;;4949789;28;20405;-81
2021/12/19 14:35:29;;;;;;;12.60;8.35;;;9.50;99.90;;;;;;4948940;28;20055;-83
2021/12/19 14:37:58;;;;;;;13.98;7.72;;;9.50;99.90;;;;;;4946322;28;20055;-80
2021/12/19 14:40:32;;;;;;;21.80;12.07;;;9.50;99.90;;;;;;4943344;28;20051;-82
2021/12/19 14:43:05;;;;;;;20.50;13.85;;;9.50;99.90;;;;;;4947442;28;20051;-82
2021/12/19 14:45:33;;;;;;;21.27;11.02;;;9.50;99.90;;;;;;4947478;28;20839;-84
2021/12/19 14:48:17;;;;;;;15.45;11.35;;;9.50;99.90;;;;;;4949487;28;20051;-84
2021/12/19 14:50:51;;;;;;;20.83;16.60;;;9.50;99.90;;;;;;4938154;28;20114;-81
2021/12/19 14:53:27;;;;;;;20.20;10.52;;;9.50;99.90;;;;;;4948397;28;20054;-85
2021/12/19 14:56:14;;;;;;;19.48;14.02;;;9.50;99.90;;;;;;4945080;28;20098;-80
2021/12/19 14:58:47;;;;;;;16.23;11.43;;;9.50;99.90;;;;;;4945865;28;20548;-80
2021/12/19 15:01:16;;;;;;;26.63;17.65;;;9.50;99.90;;;;;;4946760;28;20926;-79
2021/12/19 15:03:49;;;;;;;;;;;9.50;99.90;;;;;;4945324;28;20071;-81
2021/12/19 15:06:21;;;;;;;61.47;13.18;;;9.40;99.90;;;;;;4947445;28;19930;-84
2021/12/19 15:08:51;;;;;;;16.73;11.73;;;9.30;99.90;;;;;;4948373;28;20524;-81
2021/12/19 15:11:19;;;;;;;15.40;10.05;;;9.30;99.90;;;;;;4947833;28;20566;-80
2021/12/19 15:13:46;;;;;;;8.27;5.78;;;9.20;99.90;;;;;;4950025;28;20823;-82
2021/12/19 15:16:13;;;;;;;7.50;6.00;;;9.20;99.90;;;;;;4948553;28;20046;-81
2021/12/19 15:18:44;;;;;;;13.82;6.45;;;9.10;99.90;;;;;;4949007;28;20043;-83
2021/12/19 15:21:12;;;;;;;8.07;6.45;;;9.10;99.90;;;;;;4948455;28;20058;-79
2021/12/19 15:23:45;;;;;;;11.82;5.72;;;9.10;99.90;;;;;;4943537;28;20087;-83
2021/12/19 15:26:16;;;;;;;8.90;6.80;;;9.10;99.90;;;;;;4959419;28;20054;-83
2021/12/19 15:28:46;;;;;;;10.55;6.28;;;9.00;99.90;;;;;;4934893;28;20525;-86
2021/12/19 15:31:20;;;;;;;14.25;5.70;;;9.00;99.90;;;;;;4943350;28;20055;-87
2021/12/19 15:33:49;;;;;;;7.75;4.25;;;9.00;99.90;;;;;;4951551;28;20062;-85
2021/12/19 15:36:18;;;;;;;6.97;4.07;;;8.90;99.90;;;;;;4948757;28;20581;-84
2021/12/19 15:38:47;;;;;;;16.40;4.88;;;8.90;99.90;;;;;;4950870;28;20043;-80
2021/12/19 15:41:14;;;;;;;7.80;4.50;;;8.90;99.90;;;;;;4945807;28;20059;-80
2021/12/19 15:43:41;;;;;;;5.57;4.30;;;8.90;99.90;;;;;;4948963;28;20046;-80
2021/12/19 15:46:08;;;;;;;12.98;4.75;;;8.80;99.90;;;;;;4948493;28;20098;-83
2021/12/19 15:48:36;;;;;;;6.43;4.25;;;8.70;99.90;;;;;;4949058;28;20043;-84
2021/12/19 15:51:04;;;;;;;6.72;3.58;;;8.60;99.90;;;;;;4948494;28;20393;-83
2021/12/19 15:53:31;;;;;;;5.70;3.92;;;8.60;99.90;;;;;;4949096;28;20524;-82
2021/12/19 15:55:58;;;;;;;4.95;3.53;;;8.50;99.90;;;;;;4947964;28;20051;-81
2021/12/19 15:58:25;;;;;;;7.63;3.90;;;8.40;99.90;;;;;;4948800;28;20051;-82
2021/12/19 16:00:52;;;;;;;6.10;3.80;;;8.30;99.90;;;;;;4946233;28;20051;-83
2021/12/19 16:03:19;;;;;;;5.75;4.25;;;8.30;99.90;;;;;;4948251;28;20071;-82
2021/12/19 16:05:49;;;;;;;5.68;4.13;;;8.20;99.90;;;;;;4950003;28;20047;-82
2021/12/19 16:08:16;;;;;;;6.15;4.32;;;8.10;99.90;;;;;;4949902;28;20046;-82
2021/12/19 16:10:43;;;;;;;10.07;7.07;;;8.10;99.90;;;;;;4948373;28;20110;-82
2021/12/19 16:13:13;;;;;;;27.80;18.15;;;8.00;99.90;;;;;;4947188;28;20047;-81
2021/12/19 16:15:40;;;;;;;13.63;9.02;;;7.90;99.90;;;;;;4947738;28;20117;-81
2021/12/19 16:18:30;;;;;;;13.43;10.02;;;7.80;99.90;;;;;;4947180;28;20062;-82
2021/12/19 16:20:57;;;;;;;12.98;8.60;;;7.80;99.90;;;;;;4947705;28;20071;-82
2021/12/19 16:23:24;;;;;;;12.73;7.82;;;7.70;99.90;;;;;;4947620;28;20526;-82
2021/12/19 16:25:52;;;;;;;9.27;7.15;;;7.70;99.90;;;;;;4948033;28;20055;-82
2021/12/19 16:28:19;;;;;;;7.05;5.38;;;7.60;99.90;;;;;;4929582;28;20047;-84
2021/12/19 16:30:47;;;;;;;12.70;8.50;;;7.60;99.90;;;;;;4945008;28;20102;-83
2021/12/19 16:33:14;;;;;;;9.57;7.63;;;7.50;99.90;;;;;;4948288;28;20141;-82
2021/12/19 16:35:43;;;;;;;7.47;5.65;;;7.40;99.90;;;;;;4949486;28;20495;-82
2021/12/19 16:38:11;;;;;;;7.75;5.32;;;7.40;99.90;;;;;;4948698;28;20051;-83
2021/12/19 16:40:42;;;;;;;;;;;7.30;99.90;;;;;;4948217;28;20051;-82
2021/12/19 16:43:31;;;;;;;8.45;5.57;;;7.20;99.90;;;;;;4944330;28;20446;-83
2021/12/19 16:46:02;;;;;;;7.68;5.60;;;7.10;99.90;;;;;;4948832;28;20416;-84
2021/12/19 16:48:33;;;;;;;10.18;6.68;;;7.00;99.90;;;;;;4959671;28;20057;-84
2021/12/19 16:51:01;;;;;;;8.63;6.20;;;7.00;99.90;;;;;;4947547;28;20047;-84
2021/12/19 16:53:30;;;;;;;9.70;5.78;;;6.90;99.90;;;;;;4948372;28;20306;-83
2021/12/19 16:55:58;;;;;;;9.43;6.30;;;6.80;99.90;;;;;;4945991;28;20050;-84
2021/12/19 16:58:26;;;;;;;8.50;6.38;;;6.80;99.90;;;;;;4948891;28;20047;-83
2021/12/19 17:00:53;;;;;;;9.95;6.60;;;6.70;99.90;;;;;;4946667;28;20187;-85
2021/12/19 17:03:21;;;;;;;9.45;7.35;;;6.60;99.90;;;;;;4947124;28;20135;-84
2021/12/19 17:06:06;;;;;;;;;;;;;;;;;;;;;
2021/12/19 17:08:37;;;;;;;11.13;7.30;;;6.50;99.90;;;;;;4930126;28;20047;-84
2021/12/19 17:11:11;;;;;;;11.68;7.85;;;6.40;99.90;;;;;;4939843;28;20039;-83
2021/12/19 17:13:53;;;;;;;;;;;6.40;99.90;;;;;;4947324;28;20051;-83
2021/12/19 17:16:24;;;;;;;11.30;7.85;;;6.20;99.90;;;;;;4946478;28;19926;-83
2021/12/19 17:18:51;;;;;;;48.13;28.15;;;6.20;99.90;;;;;;4948347;28;20435;-82
2021/12/19 17:21:18;;;;;;;50.38;29.00;;;6.10;99.90;;;;;;4946899;28;20047;-84
2021/12/19 17:23:48;;;;;;;51.60;30.00;;;6.00;99.90;;;;;;4946353;28;20055;-82
2021/12/19 17:26:23;;;;;;;22.08;15.40;;;6.00;99.90;;;;;;4945609;28;20110;-85
2021/12/19 17:28:51;;;;;;;26.35;17.95;;;5.90;99.90;;;;;;4936535;28;20553;-84
2021/12/19 17:31:19;;;;;;;16.08;11.40;;;5.90;99.90;;;;;;4936925;28;20508;-83
2021/12/19 17:33:55;;;;;;;15.68;10.32;;;5.80;99.90;;;;;;4944291;28;20051;-84
2021/12/19 17:36:28;;;;;;;16.10;11.35;;;5.80;99.90;;;;;;4947963;28;20071;-84
2021/12/19 17:38:59;;;;;;;17.48;12.10;;;5.80;99.90;;;;;;4951798;28;20126;-84
2021/12/19 17:41:32;;;;;;;17.95;10.98;;;5.90;99.90;;;;;;4944274;28;20058;-84
2021/12/19 17:44:00;;;;;;;19.58;13.77;;;5.90;99.90;;;;;;4951129;28;21411;-82
2021/12/19 17:46:33;;;;;;;17.17;10.65;;;5.90;99.90;;;;;;4949177;28;20141;-82
2021/12/19 17:49:02;;;;;;;19.42;11.25;;;5.90;99.90;;;;;;4939919;28;20130;-83
2021/12/19 17:51:32;;;;;;;21.02;12.43;;;6.00;99.90;;;;;;4947737;28;20127;-84
2021/12/19 17:54:00;;;;;;;20.20;12.57;;;6.00;99.90;;;;;;4944670;28;20093;-84
2021/12/19 17:56:29;;;;;;;19.63;11.38;;;6.00;99.90;;;;;;4948373;28;20559;-83
2021/12/19 17:59:00;;;;;;;21.48;11.25;;;6.10;99.90;;;;;;4951768;28;20055;-84
2021/12/19 18:01:28;;;;;;;24.95;13.05;;;6.10;99.90;;;;;;4949369;28;20504;-84
2021/12/19 18:03:59;;;;;;;23.52;13.52;;;6.10;99.90;;;;;;4950997;28;20050;-84
2021/12/19 18:06:31;;;;;;;27.73;14.68;;;6.10;99.90;;;;;;4946883;28;20078;-84
2021/12/19 18:09:00;;;;;;;21.20;14.05;;;6.20;99.90;;;;;;4954084;28;20051;-83
2021/12/19 18:11:28;;;;;;;21.92;11.38;;;6.20;99.90;;;;;;4947023;28;20050;-85
2021/12/19 18:13:55;;;;;;;24.35;12.52;;;6.20;99.90;;;;;;4952803;28;20059;-85
2021/12/19 18:16:29;;;;;;;24.15;12.77;;;6.20;99.90;;;;;;4950815;28;20047;-83
2021/12/19 18:18:57;;;;;;;24.83;12.63;;;6.20;99.90;;;;;;4952006;28;20055;-85
2021/12/19 18:21:31;;;;;;;20.38;11.30;;;6.20;99.90;;;;;;4925080;28;20070;-80
2021/12/19 18:24:03;;;;;;;24.47;11.73;;;6.30;99.90;;;;;;4950423;28;20427;-86
2021/12/19 18:26:30;;;;;;;24.15;13.02;;;6.30;99.90;;;;;;4950754;28;20342;-85
2021/12/19 18:29:01;;;;;;;25.23;14.48;;;6.30;99.90;;;;;;4947909;28;20055;-82
2021/12/19 18:31:32;;;;;;;21.95;11.48;;;6.30;99.90;;;;;;4941119;28;20051;-86
2021/12/19 18:34:09;;;;;;;21.30;11.55;;;6.30;99.90;;;;;;4951479;28;20047;-85
2021/12/19 18:36:41;;;;;;;24.70;14.20;;;6.30;99.90;;;;;;4949455;28;20067;-86
2021/12/19 18:39:11;;;;;;;20.02;11.25;;;6.30;99.90;;;;;;4953299;28;20054;-84
2021/12/19 18:41:51;;;;;;;21.85;14.45;;;6.30;99.90;;;;;;4948282;28;20043;-85
2021/12/19 18:44:31;;;;;;;21.00;12.25;;;6.30;99.90;;;;;;4942997;28;20059;-85
2021/12/19 18:50:29;;;;;;;17.05;10.63;;;6.40;99.90;;;;;;4940657;28;20051;-87
2021/12/19 18:56:43;;;;;;;20.30;12.98;;;6.40;99.90;;;;;;4936644;28;20047;-87
2021/12/19 18:59:23;;;;;;;22.65;13.40;;;6.40;99.90;;;;;;4949415;28;20051;-87
2021/12/19 19:02:00;;;;;;;20.55;12.93;;;6.40;99.90;;;;;;4934861;28;20106;-88
2021/12/19 19:04:34;;;;;;;18.00;10.82;;;6.40;99.90;;;;;;4945132;28;20043;-86
2021/12/19 19:07:11;;;;;;;;;;;;;;;;;;;;;
2021/12/19 19:09:49;;;;;;;19.77;13.57;;;6.40;99.90;;;;;;4941784;28;20496;-88
2021/12/19 19:12:22;;;;;;;17.63;11.35;;;6.50;99.90;;;;;;4950978;28;20051;-86
2021/12/19 19:14:53;;;;;;;18.40;12.95;;;6.50;99.90;;;;;;4947290;28;20130;-87
2021/12/19 19:17:23;;;;;;;19.77;13.50;;;6.50;99.90;;;;;;4950817;28;20059;-86
2021/12/19 19:19:52;;;;;;;19.98;13.05;;;6.50;99.90;;;;;;4951014;28;20051;-85
2021/12/19 19:22:19;;;;;;;16.55;12.10;;;6.50;99.90;;;;;;4949538;28;20054;-86
2021/12/19 19:24:47;;;;;;;15.07;11.77;;;6.50;99.90;;;;;;4942869;28;20047;-88
2021/12/19 19:27:21;;;;;;;16.45;12.30;;;6.50;99.90;;;;;;4926659;28;20055;-87
2021/12/19 19:29:54;;;;;;;19.35;13.65;;;6.50;99.90;;;;;;4929721;28;20058;-89
2021/12/19 19:32:24;;;;;;;20.77;13.77;;;6.50;99.90;;;;;;4942644;28;20051;-87
2021/12/19 19:34:51;;;;;;;14.60;10.32;;;6.50;99.90;;;;;;4936289;28;20053;-86
2021/12/19 19:37:22;;;;;;;14.73;9.90;;;6.50;99.90;;;;;;4947234;28;20047;-84
2021/12/19 19:42:50;;;;;;;14.35;10.75;;;6.50;99.90;;;;;;4949031;28;20083;-87
2021/12/19 19:50:49;;;;;;;12.45;8.88;;;6.50;99.90;;;;;;4943260;28;20069;-87
2021/12/19 19:53:19;;;;;;;12.15;8.60;;;6.50;99.90;;;;;;4948351;28;20459;-86
2021/12/19 19:55:46;;;;;;;13.73;9.60;;;6.50;99.90;;;;;;4942552;28;20062;-86
2021/12/19 19:58:13;;;;;;;13.50;9.32;;;6.50;99.90;;;;;;4950329;28;20054;-89
2021/12/19 20:00:40;;;;;;;13.32;10.68;;;6.40;99.90;;;;;;4949743;28;20038;-88
2021/12/19 20:03:08;;;;;;;15.60;9.38;;;6.40;99.90;;;;;;4941465;28;20043;-87
2021/12/19 20:05:35;;;;;;;46.63;27.50;;;6.40;99.90;;;;;;4946551;28;20054;-86
2021/12/19 20:08:03;;;;;;;11.93;8.98;;;6.40;99.90;;;;;;4949592;28;20055;-93
2021/12/19 20:10:51;;;;;;;;;;;6.40;99.90;;;;;;4938115;28;20047;-93
2021/12/19 20:13:20;;;;;;;12.90;9.25;;;6.40;99.90;;;;;;4948848;28;20395;-87
2021/12/19 20:15:49;;;;;;;15.43;9.70;;;6.40;99.90;;;;;;4920054;28;20082;-88
2021/12/19 20:18:32;;;;;;;14.05;10.50;;;6.40;99.90;;;;;;4926852;28;20824;-86
2021/12/19 20:21:03;;;;;;;14.52;10.55;;;6.40;99.90;;;;;;4935055;28;20061;-87
2021/12/19 20:23:30;;;;;;;13.15;11.13;;;6.40;99.90;;;;;;4951439;28;20043;-85
2021/12/19 20:25:58;;;;;;;15.88;10.85;;;6.40;99.90;;;;;;4947357;28;20082;-83
2021/12/19 20:28:26;;;;;;;12.98;9.95;;;6.40;99.90;;;;;;4948548;28;20059;-87
2021/12/19 20:31:00;;;;;;;13.68;10.43;;;6.40;99.90;;;;;;4947753;28;20043;-84